createdAt,value
2022-10-28T00:00:54.393Z,7.97
2022-10-28T00:03:22.287Z,10.37
2022-10-28T00:05:50.255Z,7.83
2022-10-28T00:08:18.191Z,8.93
2022-10-28T00:10:46.167Z,8.33
2022-10-28T00:13:15.712Z,8.43
2022-10-28T00:15:43.630Z,8.93
2022-10-28T00:18:11.917Z,9.60
2022-10-28T00:20:39.842Z,6.37
2022-10-28T00:23:07.745Z,8.87
2022-10-28T00:25:35.719Z,9.17
2022-10-28T00:28:03.664Z,9.50
2022-10-28T00:30:32.995Z,7.47
2022-10-28T00:33:00.926Z,9.90
2022-10-28T00:35:28.985Z,9.60
2022-10-28T00:37:56.898Z,8.63
2022-10-28T00:40:24.981Z,8.77
2022-10-28T00:42:53.120Z,7.43
2022-10-28T00:45:21.330Z,9.60
2022-10-28T00:47:55.988Z,9.67
2022-10-28T00:50:39.978Z,9.50
2022-10-28T00:53:11.401Z,8.57
2022-10-28T00:55:39.395Z,8.03
2022-10-28T00:58:09.623Z,8.30
2022-10-28T01:00:37.731Z,7.83
2022-10-28T01:03:07.132Z,9.20
2022-10-28T01:05:38.762Z,10.53
2022-10-28T01:08:07.372Z,9.00
2022-10-28T01:10:49.142Z,9.07
2022-10-28T01:13:26.859Z,7.70
2022-10-28T01:16:00.267Z,7.97
2022-10-28T01:18:34.835Z,11.10
2022-10-28T01:21:33.819Z,11.47
2022-10-28T01:24:18.874Z,8.77
2022-10-28T01:27:07.893Z,9.90
2022-10-28T01:30:03.131Z,10.07
2022-10-28T01:32:36.683Z,9.63
2022-10-28T01:35:12.536Z,8.97
2022-10-28T01:37:48.491Z,7.53
2022-10-28T01:40:23.996Z,8.57
2022-10-28T01:42:58.465Z,11.00
2022-10-28T01:45:31.942Z,7.80
2022-10-28T01:48:03.262Z,12.03
2022-10-28T01:50:38.408Z,9.37
2022-10-28T01:53:11.798Z,8.30
2022-10-28T01:55:42.632Z,12.20
2022-10-28T01:58:14.328Z,7.63
2022-10-28T02:00:43.748Z,9.10
2022-10-28T02:03:13.218Z,8.40
2022-10-28T02:05:44.152Z,10.20
2022-10-28T02:08:36.183Z,6.80
2022-10-28T02:11:29.941Z,8.70
2022-10-28T02:14:04.200Z,12.03
2022-10-28T02:16:41.159Z,10.03
2022-10-28T02:19:17.792Z,7.17
2022-10-28T02:21:52.178Z,12.67
2022-10-28T02:24:23.571Z,9.00
2022-10-28T02:26:57.772Z,8.43
2022-10-28T02:29:31.048Z,9.50
2022-10-28T02:32:05.611Z,10.17
2022-10-28T02:34:40.463Z,8.40
2022-10-28T02:37:12.847Z,8.83
2022-10-28T02:39:43.404Z,11.37
2022-10-28T02:42:16.406Z,8.47
2022-10-28T02:44:51.683Z,11.97
2022-10-28T02:47:25.374Z,8.13
2022-10-28T02:49:58.790Z,9.90
2022-10-28T02:52:29.405Z,8.57
2022-10-28T02:54:59.779Z,9.83
2022-10-28T02:57:30.757Z,9.23
2022-10-28T03:00:00.687Z,10.13
2022-10-28T03:02:29.484Z,10.10
2022-10-28T03:04:58.729Z,8.50
2022-10-28T03:07:26.663Z,11.43
2022-10-28T03:09:54.583Z,8.10
2022-10-28T03:12:22.555Z,12.40
2022-10-28T03:14:50.538Z,10.60
2022-10-28T03:17:18.582Z,9.00
2022-10-28T03:19:46.503Z,9.93
2022-10-28T03:22:15.757Z,9.63
2022-10-28T03:24:43.613Z,8.17
2022-10-28T03:27:11.624Z,8.30
2022-10-28T03:29:43.439Z,7.87
2022-10-28T03:32:14.378Z,9.70
2022-10-28T03:34:42.530Z,9.27
2022-10-28T03:37:10.721Z,12.63
2022-10-28T03:39:40.003Z,10.57
2022-10-28T03:42:07.913Z,10.00
2022-10-28T03:44:35.787Z,10.60
2022-10-28T03:47:03.958Z,10.70
2022-10-28T03:49:31.909Z,7.97
2022-10-28T03:51:59.818Z,9.93
2022-10-28T03:54:27.743Z,10.63
2022-10-28T03:56:57.052Z,8.97
2022-10-28T03:59:24.962Z,10.90
2022-10-28T04:01:53.045Z,13.77
2022-10-28T04:04:21.107Z,10.43
2022-10-28T04:06:49.186Z,11.83
2022-10-28T04:09:17.116Z,8.60
2022-10-28T04:11:45.311Z,10.30
2022-10-28T04:14:14.588Z,10.30
2022-10-28T04:16:42.707Z,8.73
2022-10-28T04:19:10.579Z,12.37
2022-10-28T04:21:38.580Z,13.97
2022-10-28T04:24:07.118Z,11.93
2022-10-28T04:26:35.008Z,10.00
2022-10-28T04:29:02.961Z,10.80
2022-10-28T04:31:32.253Z,9.47
2022-10-28T04:34:00.144Z,12.63
2022-10-28T04:36:28.044Z,9.13
2022-10-28T04:38:56.011Z,11.37
2022-10-28T04:41:23.961Z,11.27
2022-10-28T04:43:51.919Z,9.47
2022-10-28T04:46:19.877Z,10.53
2022-10-28T04:48:49.600Z,11.33
2022-10-28T04:51:17.586Z,11.23
2022-10-28T04:53:45.480Z,8.63
2022-10-28T04:56:13.414Z,10.03
2022-10-28T04:58:41.303Z,12.60
2022-10-28T05:01:10.339Z,7.97
2022-10-28T05:03:38.355Z,9.67
2022-10-28T05:06:07.912Z,12.97
2022-10-28T05:08:35.835Z,8.67
2022-10-28T05:11:03.706Z,9.93
2022-10-28T05:13:31.674Z,9.80
2022-10-28T05:15:59.539Z,9.50
2022-10-28T05:18:27.534Z,10.13
2022-10-28T05:20:55.697Z,10.20
2022-10-28T05:23:27.274Z,10.00
2022-10-28T05:25:57.905Z,12.27
2022-10-28T05:28:25.887Z,9.13
2022-10-28T05:30:53.804Z,8.30
2022-10-28T05:33:21.677Z,8.17
2022-10-28T05:35:49.838Z,9.70
2022-10-28T05:38:17.762Z,10.93
2022-10-28T05:40:47.082Z,9.43
2022-10-28T05:43:14.994Z,10.37
2022-10-28T05:45:42.906Z,8.10
2022-10-28T05:48:10.872Z,10.20
2022-10-28T05:50:38.828Z,10.13
2022-10-28T05:53:06.790Z,10.47
2022-10-28T05:55:35.259Z,10.97
2022-10-28T05:58:04.574Z,10.17
2022-10-28T06:00:32.984Z,8.70
2022-10-28T06:03:06.844Z,9.60
2022-10-28T06:05:34.911Z,12.03
2022-10-28T06:08:02.831Z,8.83
2022-10-28T06:10:30.807Z,9.80
2022-10-28T06:12:57.393Z,12.27
2022-10-28T06:15:26.864Z,11.20
2022-10-28T06:17:54.808Z,12.00
2022-10-28T06:20:22.771Z,10.73
2022-10-28T06:22:52.634Z,13.30
2022-10-28T06:25:23.085Z,12.90
2022-10-28T06:27:54.329Z,9.20
2022-10-28T06:30:22.730Z,10.10
2022-10-28T06:32:52.261Z,12.27
2022-10-28T06:35:20.167Z,10.30
2022-10-28T06:37:48.045Z,11.87
2022-10-28T06:40:16.009Z,9.60
2022-10-28T06:42:43.878Z,11.97
2022-10-28T06:45:11.859Z,11.20
2022-10-28T06:47:41.769Z,12.07
2022-10-28T06:50:11.401Z,11.23
2022-10-28T06:52:39.385Z,11.23
2022-10-28T06:55:08.074Z,9.77
2022-10-28T06:57:35.932Z,10.80
2022-10-28T07:00:04.516Z,10.30
2022-10-28T07:02:32.487Z,9.17
2022-10-28T07:05:00.494Z,9.90
2022-10-28T07:07:29.829Z,10.60
2022-10-28T07:09:57.739Z,13.77
2022-10-28T07:12:25.627Z,11.37
2022-10-28T07:14:53.556Z,10.70
2022-10-28T07:17:21.466Z,11.83
2022-10-28T07:19:49.439Z,12.73
2022-10-28T07:22:17.502Z,10.10
2022-10-28T07:24:46.846Z,12.33
2022-10-28T07:27:14.837Z,12.27
2022-10-28T07:29:42.872Z,11.53
2022-10-28T07:32:10.834Z,9.80
2022-10-28T07:34:38.705Z,8.33
2022-10-28T07:37:06.777Z,9.57
2022-10-28T07:39:34.661Z,10.20
2022-10-28T07:42:04.061Z,9.20
2022-10-28T07:44:32.380Z,13.60
2022-10-28T07:47:00.311Z,9.37
2022-10-28T07:49:28.217Z,9.90
2022-10-28T07:51:56.241Z,10.93
2022-10-28T07:54:24.120Z,10.93
2022-10-28T07:56:52.094Z,12.93
2022-10-28T07:59:26.548Z,9.97
2022-10-28T08:01:55.556Z,7.13
2022-10-28T08:04:23.591Z,8.50
2022-10-28T08:06:51.615Z,11.20
2022-10-28T08:09:19.589Z,10.43
2022-10-28T08:11:47.613Z,8.17
2022-10-28T08:14:15.650Z,10.57
2022-10-28T08:16:46.309Z,10.23
2022-10-28T08:19:14.513Z,10.37
2022-10-28T08:21:42.410Z,8.80
2022-10-28T08:24:10.381Z,10.07
2022-10-28T08:26:38.400Z,8.77
2022-10-28T08:29:06.876Z,8.40
2022-10-28T08:31:35.205Z,10.23
2022-10-28T08:34:04.621Z,9.53
2022-10-28T08:36:32.892Z,10.67
2022-10-28T08:39:01.688Z,8.00
2022-10-28T08:41:36.027Z,6.13
2022-10-28T08:44:31.848Z,7.23
2022-10-28T08:47:11.830Z,8.13
2022-10-28T08:49:45.730Z,8.47
2022-10-28T08:52:25.664Z,10.17
2022-10-28T08:54:56.679Z,8.80
2022-10-28T08:57:33.765Z,9.20
2022-10-28T09:00:03.274Z,7.53
2022-10-28T09:02:45.854Z,7.90
2022-10-28T09:05:22.673Z,10.60
2022-10-28T09:07:51.321Z,7.00
2022-10-28T09:10:36.767Z,7.67
2022-10-28T09:13:14.760Z,10.50
2022-10-28T09:15:47.626Z,8.23
2022-10-28T09:18:20.050Z,7.53
2022-10-28T09:20:54.173Z,8.90
2022-10-28T09:23:24.501Z,13.13
2022-10-28T09:26:07.763Z,11.27
2022-10-28T09:31:41.096Z,11.50
2022-10-28T09:34:22.488Z,11.47
2022-10-28T09:36:56.006Z,9.57
2022-10-28T09:42:19.276Z,12.20
2022-10-28T09:44:49.982Z,9.03
2022-10-28T09:47:21.773Z,8.07
2022-10-28T09:52:45.264Z,9.17
2022-10-28T10:00:52.609Z,8.97
2022-10-28T10:06:13.404Z,8.67
2022-10-28T10:08:44.519Z,9.00
2022-10-28T10:11:18.778Z,9.10
2022-10-28T10:13:46.965Z,10.43
2022-10-28T10:16:18.456Z,8.57
2022-10-28T10:18:50.544Z,8.67
2022-10-28T10:21:21.089Z,9.03
2022-10-28T10:23:50.404Z,8.03
2022-10-28T10:26:18.595Z,7.27
2022-10-28T10:28:48.278Z,6.40
2022-10-28T10:31:21.464Z,6.00
2022-10-28T10:36:37.578Z,6.67
2022-10-28T10:39:22.562Z,12.00
2022-10-28T10:41:50.571Z,6.27
2022-10-28T10:44:34.011Z,8.67
2022-10-28T10:50:22.893Z,7.27
2022-10-28T10:58:31.038Z,10.73
2022-10-28T11:01:01.617Z,7.10
2022-10-28T11:03:34.772Z,8.20
2022-10-28T11:08:55.225Z,7.10
2022-10-28T11:14:27.744Z,5.47
2022-10-28T11:19:42.524Z,7.47
2022-10-28T11:22:21.381Z,10.67
2022-10-28T11:28:09.865Z,9.73
2022-10-28T11:30:47.765Z,7.00
2022-10-28T11:33:34.728Z,10.57
2022-10-28T11:36:16.106Z,9.47
2022-10-28T11:39:12.587Z,12.33
2022-10-28T11:41:51.558Z,9.40
2022-10-28T11:44:34.142Z,7.03
2022-10-28T11:47:16.492Z,10.33
2022-10-28T11:56:18.241Z,9.43
2022-10-28T11:58:54.351Z,10.37
2022-10-28T12:04:34.233Z,5.77
2022-10-28T12:16:05.046Z,8.30
2022-10-28T12:18:41.435Z,9.07
2022-10-28T12:21:16.712Z,7.03
2022-10-28T12:23:45.783Z,9.07
2022-10-28T12:31:56.973Z,10.07
2022-10-28T12:37:22.280Z,10.27
2022-10-28T12:39:55.961Z,11.83
2022-10-28T12:48:11.896Z,8.37
2022-10-28T12:50:47.466Z,6.80
2022-10-28T12:56:19.683Z,8.37
2022-10-28T12:59:00.174Z,9.87
2022-10-28T13:01:31.720Z,9.30
2022-10-28T13:03:59.882Z,11.27
2022-10-28T13:06:49.263Z,9.00
2022-10-28T13:09:37.927Z,6.93
2022-10-28T13:12:35.976Z,10.03
2022-10-28T13:15:26.055Z,9.47
2022-10-28T13:18:13.324Z,8.00
2022-10-28T13:26:30.954Z,7.30
2022-10-28T13:31:48.809Z,10.23
2022-10-28T13:34:18.917Z,9.50
2022-10-28T13:39:45.672Z,9.43
2022-10-28T13:42:33.331Z,7.23
2022-10-28T13:45:03.557Z,10.17
2022-10-28T13:47:32.914Z,7.83
2022-10-28T13:50:37.341Z,6.17
2022-10-28T13:53:39.266Z,11.03
2022-10-28T13:56:33.285Z,10.00
2022-10-28T13:59:03.771Z,6.17
2022-10-28T14:02:08.062Z,7.77
2022-10-28T14:04:43.892Z,7.80
2022-10-28T14:07:22.294Z,9.43
2022-10-28T14:09:55.094Z,7.50
2022-10-28T14:12:30.026Z,12.10
2022-10-28T14:15:07.901Z,8.43
2022-10-28T14:17:38.842Z,10.30
2022-10-28T14:20:21.354Z,10.17
2022-10-28T14:22:51.045Z,9.17
2022-10-28T14:25:56.116Z,9.17
2022-10-28T14:31:47.827Z,8.67
2022-10-28T14:37:42.843Z,9.27
2022-10-28T14:40:24.366Z,10.40
2022-10-28T14:51:44.850Z,11.70
2022-10-28T14:54:17.217Z,11.33
2022-10-28T14:56:45.806Z,10.13
2022-10-28T14:59:25.078Z,10.73
2022-10-28T15:04:49.501Z,10.80
2022-10-28T15:07:19.815Z,8.30
2022-10-28T15:12:38.924Z,12.00
2022-10-28T15:15:19.018Z,15.77
2022-10-28T15:17:48.366Z,9.73
2022-10-28T15:26:06.782Z,10.77
2022-10-28T15:31:20.897Z,10.10
2022-10-28T15:36:36.232Z,9.23
2022-10-28T15:41:54.801Z,10.77
2022-10-28T15:44:29.024Z,11.77
2022-10-28T15:46:58.342Z,10.07
2022-10-28T15:49:36.928Z,10.73
2022-10-28T15:52:33.351Z,8.17
2022-10-28T15:55:02.420Z,10.20
2022-10-28T15:57:31.987Z,6.90
2022-10-28T16:05:59.452Z,13.63
2022-10-28T16:08:30.400Z,11.20
2022-10-28T16:11:01.573Z,11.17
2022-10-28T16:13:33.544Z,11.83
2022-10-28T16:16:08.375Z,9.40
2022-10-28T16:18:43.784Z,10.13
2022-10-28T16:21:19.652Z,10.30
2022-10-28T16:23:50.553Z,11.57
2022-10-28T16:26:18.701Z,7.53
2022-10-28T16:28:46.559Z,11.00
2022-10-28T16:31:17.326Z,12.87
2022-10-28T16:33:45.973Z,13.83
2022-10-28T16:36:15.401Z,12.20
2022-10-28T16:38:43.468Z,9.33
2022-10-28T16:44:02.991Z,12.37
2022-10-28T16:49:16.616Z,10.83
2022-10-28T16:54:31.954Z,10.80
2022-10-28T16:56:59.849Z,12.83
2022-10-28T17:02:26.920Z,11.13
2022-10-28T17:04:55.279Z,8.93
2022-10-28T17:07:24.859Z,9.90
2022-10-28T17:09:52.924Z,11.00
2022-10-28T17:12:22.799Z,13.07
2022-10-28T17:20:21.958Z,10.10
2022-10-28T17:22:51.224Z,10.77
2022-10-28T17:25:19.456Z,13.37
2022-10-28T17:27:48.715Z,14.80
2022-10-28T17:30:18.214Z,8.83
2022-10-28T17:32:49.621Z,14.87
2022-10-28T17:35:17.866Z,10.77
2022-10-28T17:40:32.978Z,10.13
2022-10-28T17:43:00.933Z,13.80
2022-10-28T17:45:28.833Z,13.10
2022-10-28T17:50:44.063Z,13.13
2022-10-28T17:53:12.031Z,13.23
2022-10-28T17:55:42.074Z,9.03
2022-10-28T17:58:10.022Z,10.50
2022-10-28T18:00:37.934Z,10.17
2022-10-28T18:03:06.216Z,11.00
2022-10-28T18:05:36.716Z,11.47
2022-10-28T18:08:05.070Z,13.13
2022-10-28T18:16:06.216Z,11.20
2022-10-28T18:18:40.855Z,11.73
2022-10-28T18:21:11.218Z,11.57
2022-10-28T18:23:40.785Z,8.17
2022-10-28T18:28:59.179Z,14.33
2022-10-28T18:31:27.340Z,12.67
2022-10-28T18:33:55.605Z,9.47
2022-10-28T18:36:25.234Z,8.87
2022-10-28T18:38:53.247Z,10.73
2022-10-28T18:44:12.045Z,13.13
2022-10-28T18:46:40.054Z,11.23
2022-10-28T18:49:07.937Z,10.13
2022-10-28T18:51:36.457Z,13.13
2022-10-28T19:05:09.341Z,11.60
2022-10-28T19:07:37.262Z,13.50
2022-10-28T19:10:06.107Z,14.23
2022-10-28T19:12:36.148Z,13.27
2022-10-28T19:15:08.256Z,12.80
2022-10-28T19:17:36.250Z,14.83
2022-10-28T19:20:04.238Z,16.03
2022-10-28T19:25:17.994Z,13.37
2022-10-28T19:27:45.913Z,15.57
2022-10-28T19:30:15.449Z,12.73
2022-10-28T19:32:43.297Z,10.27
2022-10-28T19:35:11.209Z,13.97
2022-10-28T19:40:24.583Z,14.53
2022-10-28T19:42:54.279Z,15.47
2022-10-28T19:45:23.640Z,17.47
2022-10-28T19:47:51.742Z,12.60
2022-10-28T19:50:23.229Z,15.37
2022-10-28T19:52:51.137Z,16.27
2022-10-28T19:55:19.363Z,12.37
2022-10-28T19:57:50.361Z,14.53
2022-10-28T20:00:21.031Z,16.13
2022-10-28T20:02:50.345Z,14.23
2022-10-28T20:05:18.241Z,15.67
2022-10-28T20:07:46.245Z,17.97
2022-10-28T20:10:14.327Z,12.97
2022-10-28T20:12:42.202Z,15.60
2022-10-28T20:15:10.397Z,15.13
2022-10-28T20:17:38.375Z,10.30
2022-10-28T20:20:09.056Z,16.73
2022-10-28T20:22:42.081Z,13.97
2022-10-28T20:25:10.858Z,14.00
2022-10-28T20:27:38.746Z,17.23
2022-10-28T20:30:08.151Z,19.00
2022-10-28T20:32:36.334Z,12.70
2022-10-28T20:35:04.302Z,18.67
2022-10-28T20:37:33.547Z,17.40
2022-10-28T20:40:06.274Z,16.67
2022-10-28T20:42:35.499Z,18.80
2022-10-28T20:45:03.420Z,21.33
2022-10-28T20:50:17.203Z,16.33
2022-10-28T20:52:46.451Z,16.33
2022-10-28T20:58:00.173Z,15.30
2022-10-28T21:00:28.092Z,17.07
2022-10-28T21:02:57.039Z,19.53
2022-10-28T21:05:25.263Z,21.00
2022-10-28T21:07:55.249Z,17.53
2022-10-28T21:10:23.666Z,19.83
2022-10-28T21:12:51.686Z,16.77
2022-10-28T21:15:19.670Z,17.73
2022-10-28T21:17:47.567Z,14.77
2022-10-28T21:23:02.867Z,21.17
2022-10-28T21:25:31.047Z,16.17
2022-10-28T21:30:45.315Z,15.57
2022-10-28T21:36:00.644Z,18.47
2022-10-28T21:38:31.094Z,18.37
2022-10-28T21:41:03.031Z,19.50
2022-10-28T21:43:32.838Z,16.87
2022-10-28T21:46:01.042Z,13.83
2022-10-28T21:51:16.766Z,14.13
2022-10-28T21:53:46.263Z,21.43
2022-10-28T22:01:47.830Z,18.57
2022-10-28T22:04:15.875Z,20.30
2022-10-28T22:06:43.766Z,16.77
2022-10-28T22:09:13.060Z,18.63
2022-10-28T22:19:58.486Z,16.70
2022-10-28T22:22:26.542Z,18.83
2022-10-28T22:24:55.875Z,16.27
2022-10-28T22:27:23.900Z,17.73
2022-10-28T22:29:51.840Z,16.40
2022-10-28T22:35:06.293Z,15.67
2022-10-28T22:37:34.159Z,15.40
2022-10-28T22:40:03.493Z,18.67
2022-10-28T22:42:31.402Z,14.77
2022-10-28T22:44:59.335Z,13.07
2022-10-28T22:47:27.193Z,19.57
2022-10-28T22:49:55.301Z,18.20
2022-10-28T22:52:23.325Z,13.70
2022-10-28T22:54:51.256Z,15.87
2022-10-28T22:57:20.628Z,18.40
2022-10-28T23:02:34.016Z,15.97
2022-10-28T23:05:01.966Z,15.70
2022-10-28T23:07:29.870Z,14.73
2022-10-28T23:09:58.764Z,15.10
2022-10-28T23:12:28.056Z,19.43
2022-10-28T23:17:41.703Z,13.40
2022-10-28T23:20:10.629Z,16.63
2022-10-28T23:22:38.574Z,13.53
2022-10-28T23:25:07.703Z,13.13
2022-10-28T23:30:24.817Z,15.27
2022-10-28T23:32:52.698Z,17.77
2022-10-28T23:35:20.580Z,16.40
2022-10-28T23:37:48.437Z,17.37
2022-10-28T23:40:16.530Z,16.03
2022-10-28T23:42:45.897Z,16.07
2022-10-28T23:45:14.014Z,13.03
2022-10-28T23:47:41.895Z,14.00
2022-10-28T23:50:10.923Z,12.10
2022-10-28T23:52:38.883Z,16.73
2022-10-28T23:57:57.734Z,16.83
